Time;durP1;ratioP1;P1;durP2;ratioP2;P2;SDS_P1;SDS_P2;PMS_P1;PMS_P2;Temp;Humidity;BMP_temperature;BMP_pressure;BME280_temperature;BME280_humidity;BME280_pressure;Samples;Min_cycle;Max_cycle;Signal;HPM_P1;HPM_P2
2023/04/15 00:02:15;;;;;;;11.50;9.57;;;8.20;99.90;;;;;;4919548;29;20646;-64
2023/04/15 00:04:43;;;;;;;12.10;10.03;;;8.20;99.90;;;;;;4934371;29;20738;-66
2023/04/15 00:07:12;;;;;;;11.13;9.23;;;8.20;99.90;;;;;;4934977;29;20319;-65
2023/04/15 00:09:41;;;;;;;11.90;10.30;;;8.10;99.90;;;;;;4934847;29;20280;-65
2023/04/15 00:12:09;;;;;;;12.53;10.60;;;8.20;99.90;;;;;;4934951;29;20234;-65
2023/04/15 00:14:37;;;;;;;11.90;10.17;;;8.20;99.90;;;;;;4936135;29;20641;-65
2023/04/15 00:17:07;;;;;;;11.23;10.03;;;8.10;99.90;;;;;;4935058;29;20693;-65
2023/04/15 00:19:35;;;;;;;11.47;10.20;;;8.10;99.90;;;;;;4927066;29;20312;-65
2023/04/15 00:22:03;;;;;;;11.80;9.77;;;8.10;99.90;;;;;;4923978;29;20230;-65
2023/04/15 00:24:31;;;;;;;11.00;9.67;;;8.10;99.90;;;;;;4937293;29;20272;-66
2023/04/15 00:26:59;;;;;;;12.07;10.60;;;8.10;99.90;;;;;;4919537;29;20251;-65
2023/04/15 00:29:28;;;;;;;11.43;9.90;;;8.10;99.90;;;;;;4919124;29;20224;-65
2023/04/15 00:31:56;;;;;;;11.83;10.10;;;8.10;99.90;;;;;;4935306;29;20747;-65
2023/04/15 00:34:27;;;;;;;10.00;9.00;;;8.10;99.90;;;;;;4929677;29;20227;-64
2023/04/15 00:36:55;;;;;;;10.70;8.87;;;8.10;99.90;;;;;;4920016;29;20311;-65
2023/04/15 00:39:23;;;;;;;9.57;7.93;;;8.10;99.90;;;;;;4918033;29;20241;-65
2023/04/15 00:41:52;;;;;;;9.33;7.80;;;8.10;99.90;;;;;;4933652;29;20590;-65
2023/04/15 00:44:20;;;;;;;9.17;8.07;;;8.10;99.90;;;;;;4918989;29;20227;-65
2023/04/15 00:46:50;;;;;;;9.13;8.17;;;8.10;99.90;;;;;;4925484;29;20252;-65
2023/04/15 00:49:18;;;;;;;9.30;8.30;;;8.10;99.90;;;;;;4929897;29;20224;-66
2023/04/15 00:51:48;;;;;;;8.97;7.20;;;8.10;99.90;;;;;;4936154;29;20263;-65
2023/04/15 00:54:16;;;;;;;8.47;7.03;;;8.10;99.90;;;;;;4937906;29;20219;-65
2023/04/15 00:56:45;;;;;;;8.00;7.20;;;8.10;99.90;;;;;;4919736;29;21709;-65
2023/04/15 00:59:15;;;;;;;7.47;6.70;;;8.10;99.90;;;;;;4933262;29;20729;-65
2023/04/15 01:01:45;;;;;;;8.03;6.73;;;8.00;99.90;;;;;;4918986;29;20237;-65
2023/04/15 01:04:13;;;;;;;8.00;6.93;;;8.00;99.90;;;;;;4937362;29;20248;-65
2023/04/15 01:06:42;;;;;;;7.57;6.77;;;8.00;99.90;;;;;;4936595;29;20259;-65
2023/04/15 01:09:12;;;;;;;7.83;6.13;;;8.00;99.90;;;;;;4928128;29;20227;-65
2023/04/15 01:11:40;;;;;;;8.00;6.00;;;8.00;99.90;;;;;;4929263;29;20224;-65
2023/04/15 01:14:10;;;;;;;7.33;5.70;;;8.00;99.90;;;;;;4936091;29;20255;-64
2023/04/15 01:16:39;;;;;;;7.37;5.50;;;8.10;99.90;;;;;;4929307;29;20232;-64
2023/04/15 01:19:08;;;;;;;6.33;5.37;;;8.00;99.90;;;;;;4929557;29;20223;-65
2023/04/15 01:21:38;;;;;;;6.03;5.43;;;8.00;99.90;;;;;;4937193;29;20234;-65
2023/04/15 01:24:10;;;;;;;5.97;5.03;;;8.00;99.90;;;;;;4937189;29;20291;-65
2023/04/15 01:26:42;;;;;;;6.73;4.90;;;8.00;99.90;;;;;;4920111;29;20320;-64
2023/04/15 01:29:12;;;;;;;6.20;5.20;;;8.00;99.90;;;;;;4922039;29;20256;-65
2023/04/15 01:31:40;;;;;;;5.43;4.93;;;8.00;99.90;;;;;;4951544;29;20240;-65
2023/04/15 01:34:08;;;;;;;5.37;4.80;;;8.00;99.90;;;;;;4929978;29;20259;-64
2023/04/15 01:36:36;;;;;;;6.63;5.67;;;7.90;99.90;;;;;;4921372;29;20236;-65
2023/04/15 01:39:05;;;;;;;5.63;4.93;;;7.90;99.90;;;;;;4916843;29;20252;-64
2023/04/15 01:41:33;;;;;;;8.17;5.33;;;7.90;99.90;;;;;;4917861;29;20232;-65
2023/04/15 01:44:03;;;;;;;6.37;5.63;;;7.90;99.90;;;;;;4935718;29;20234;-65
2023/04/15 01:46:31;;;;;;;6.40;5.57;;;7.90;99.90;;;;;;4929478;29;20689;-65
2023/04/15 01:49:00;;;;;;;6.83;6.13;;;7.90;99.90;;;;;;4928626;29;20216;-65
2023/04/15 01:51:29;;;;;;;6.97;5.93;;;7.90;99.90;;;;;;4935406;29;20718;-65
2023/04/15 01:53:57;;;;;;;7.93;6.80;;;7.90;99.90;;;;;;4935360;29;20565;-64
2023/04/15 01:56:25;;;;;;;8.40;6.80;;;7.90;99.90;;;;;;4921294;29;20697;-64
2023/04/15 01:58:53;;;;;;;8.93;7.93;;;7.90;99.90;;;;;;4917945;29;20231;-65
2023/04/15 02:01:23;;;;;;;8.80;7.87;;;7.90;99.90;;;;;;4931858;29;20328;-65
2023/04/15 02:03:53;;;;;;;9.03;7.50;;;7.90;99.90;;;;;;4934179;29;20260;-65
2023/04/15 02:06:22;;;;;;;9.33;8.33;;;7.80;99.90;;;;;;4921581;29;20268;-64
2023/04/15 02:08:50;;;;;;;9.60;8.17;;;7.80;99.90;;;;;;4917385;29;20229;-65
2023/04/15 02:11:18;;;;;;;10.47;9.20;;;7.80;99.90;;;;;;4916189;29;20720;-65
2023/04/15 02:13:46;;;;;;;12.43;9.63;;;7.80;99.90;;;;;;4931507;29;20232;-65
2023/04/15 02:16:18;;;;;;;10.53;9.43;;;7.80;99.90;;;;;;4940181;29;20722;-66
2023/04/15 02:18:48;;;;;;;11.33;9.83;;;7.80;99.90;;;;;;4930286;29;20225;-65
2023/04/15 02:21:17;;;;;;;12.20;9.40;;;7.80;99.90;;;;;;4936526;29;20236;-65
2023/04/15 02:23:47;;;;;;;11.77;10.57;;;7.80;99.90;;;;;;4935924;29;20240;-65
2023/04/15 02:26:15;;;;;;;12.03;10.30;;;7.80;99.90;;;;;;4927665;29;20249;-65
2023/04/15 02:28:43;;;;;;;12.53;11.03;;;7.80;99.90;;;;;;4917095;29;20655;-65
2023/04/15 02:31:14;;;;;;;12.17;10.03;;;7.80;99.90;;;;;;4916872;29;20333;-65
2023/04/15 02:33:43;;;;;;;11.60;10.40;;;7.80;99.90;;;;;;4932783;29;20727;-65
2023/04/15 02:36:12;;;;;;;13.77;11.67;;;7.80;99.90;;;;;;4927879;29;20225;-65
2023/04/15 02:38:41;;;;;;;14.73;11.90;;;7.80;99.90;;;;;;4934059;29;20231;-65
2023/04/15 02:41:10;;;;;;;13.23;11.57;;;7.80;99.90;;;;;;4950672;29;20232;-66
2023/04/15 02:43:38;;;;;;;13.97;10.97;;;7.80;99.90;;;;;;4950448;29;20327;-65
2023/04/15 02:46:11;;;;;;;12.20;10.73;;;7.80;99.90;;;;;;4950600;29;20232;-66
2023/04/15 02:48:39;;;;;;;13.23;11.47;;;7.80;99.90;;;;;;4926082;29;20701;-65
2023/04/15 02:51:15;;;;;;;13.80;11.53;;;7.80;99.90;;;;;;4946962;29;20264;-65
2023/04/15 02:53:43;;;;;;;13.63;11.77;;;7.80;99.90;;;;;;4935429;29;20228;-65
2023/04/15 02:56:11;;;;;;;13.53;11.63;;;7.80;99.90;;;;;;4922076;29;20325;-65
2023/04/15 02:58:40;;;;;;;13.87;11.50;;;7.80;99.90;;;;;;4916557;29;20688;-66
2023/04/15 03:01:08;;;;;;;15.10;12.17;;;7.80;99.90;;;;;;4915111;29;20292;-64
2023/04/15 03:03:37;;;;;;;14.53;12.57;;;7.80;99.90;;;;;;4930366;29;20252;-65
2023/04/15 03:06:05;;;;;;;12.83;11.33;;;7.80;99.90;;;;;;4941663;29;20321;-65
2023/04/15 03:08:35;;;;;;;13.00;11.03;;;7.80;99.90;;;;;;4934065;29;20664;-65
2023/04/15 03:11:05;;;;;;;14.37;12.43;;;7.80;99.90;;;;;;4935579;29;20220;-65
2023/04/15 03:13:33;;;;;;;15.03;11.47;;;7.80;99.90;;;;;;4950378;29;20239;-65
2023/04/15 03:16:10;;;;;;;14.43;12.43;;;7.80;99.90;;;;;;4937263;29;20599;-66
2023/04/15 03:18:38;;;;;;;14.87;12.20;;;7.80;99.90;;;;;;4929272;29;20821;-66
2023/04/15 03:21:07;;;;;;;14.37;12.23;;;7.80;99.90;;;;;;4935463;29;20224;-66
2023/04/15 03:23:39;;;;;;;13.90;12.17;;;7.80;99.90;;;;;;4933993;29;20297;-64
2023/04/15 03:26:07;;;;;;;14.83;12.73;;;7.80;99.90;;;;;;4926890;29;20746;-66
2023/04/15 03:28:36;;;;;;;14.37;11.50;;;7.80;99.90;;;;;;4933944;29;20275;-66
2023/04/15 03:31:05;;;;;;;15.53;11.87;;;7.80;99.90;;;;;;4935123;29;20283;-64
2023/04/15 03:33:33;;;;;;;14.50;12.07;;;7.80;99.90;;;;;;4933771;29;20703;-66
2023/04/15 03:36:01;;;;;;;12.87;11.00;;;7.80;99.90;;;;;;4934993;29;20227;-66
2023/04/15 03:38:29;;;;;;;14.33;11.63;;;7.80;99.90;;;;;;4935093;29;20228;-65
2023/04/15 03:40:58;;;;;;;15.57;11.47;;;7.80;99.90;;;;;;4935538;29;20676;-66
2023/04/15 03:43:27;;;;;;;12.93;10.83;;;7.80;99.90;;;;;;4935361;29;20287;-65
2023/04/15 03:45:55;;;;;;;12.80;11.20;;;7.80;99.90;;;;;;4936529;29;20592;-66
2023/04/15 03:48:23;;;;;;;12.13;10.43;;;7.80;99.90;;;;;;4934340;28;20236;-66
2023/04/15 03:50:51;;;;;;;11.70;10.47;;;7.80;99.90;;;;;;4936930;29;20232;-66
2023/04/15 03:53:20;;;;;;;12.43;10.13;;;7.80;99.90;;;;;;4939131;29;20233;-65
2023/04/15 03:55:49;;;;;;;11.90;10.17;;;7.80;99.90;;;;;;4938223;29;20235;-65
2023/04/15 03:58:18;;;;;;;12.00;10.00;;;7.80;99.90;;;;;;4938861;29;20707;-66
2023/04/15 04:00:46;;;;;;;11.13;9.53;;;7.80;99.90;;;;;;4938562;29;20704;-66
2023/04/15 04:03:14;;;;;;;11.40;9.10;;;7.80;99.90;;;;;;4933758;29;20231;-66
2023/04/15 04:05:43;;;;;;;11.77;10.10;;;7.80;99.90;;;;;;4927295;29;20256;-66
2023/04/15 04:08:12;;;;;;;12.13;9.87;;;7.80;99.90;;;;;;4919853;29;20697;-65
2023/04/15 04:10:40;;;;;;;11.83;10.10;;;7.80;99.90;;;;;;4919472;29;20293;-65
2023/04/15 04:13:09;;;;;;;11.90;10.00;;;7.80;99.90;;;;;;4926746;29;20304;-64
2023/04/15 04:15:38;;;;;;;11.67;9.80;;;7.80;99.90;;;;;;4938150;29;20735;-65
2023/04/15 04:18:06;;;;;;;11.60;9.70;;;7.80;99.90;;;;;;4930414;29;20220;-65
2023/04/15 04:20:34;;;;;;;12.03;10.50;;;7.80;99.90;;;;;;4923522;29;20238;-66
2023/04/15 04:23:02;;;;;;;10.87;9.17;;;7.80;99.90;;;;;;4925925;29;20243;-66
2023/04/15 04:25:31;;;;;;;11.23;9.53;;;7.80;99.90;;;;;;4931199;29;20238;-66
2023/04/15 04:27:59;;;;;;;11.30;9.80;;;7.80;99.90;;;;;;4922004;29;20253;-65
2023/04/15 04:30:27;;;;;;;11.23;10.03;;;7.80;99.90;;;;;;4936191;29;20580;-65
2023/04/15 04:32:56;;;;;;;10.27;9.17;;;7.80;99.90;;;;;;4945936;29;20240;-65
2023/04/15 04:35:24;;;;;;;11.37;10.17;;;7.80;99.90;;;;;;4930388;29;20237;-65
2023/04/15 04:37:52;;;;;;;11.13;9.63;;;7.80;99.90;;;;;;4938547;29;20584;-66
2023/04/15 04:40:20;;;;;;;10.10;8.87;;;7.80;99.90;;;;;;4938551;29;20239;-66
2023/04/15 04:42:48;;;;;;;11.10;9.50;;;7.80;99.90;;;;;;4937918;29;20260;-66
2023/04/15 04:45:17;;;;;;;10.47;9.27;;;7.80;99.90;;;;;;4938044;29;20232;-66
2023/04/15 04:47:45;;;;;;;10.67;9.30;;;7.80;99.90;;;;;;4944154;29;20240;-64
2023/04/15 04:50:15;;;;;;;11.00;9.30;;;7.80;99.90;;;;;;4937705;29;20307;-66
2023/04/15 04:52:43;;;;;;;11.13;9.30;;;7.80;99.90;;;;;;4937527;29;20236;-66
2023/04/15 04:55:12;;;;;;;11.50;9.53;;;7.80;99.90;;;;;;4933296;29;20232;-66
2023/04/15 04:57:40;;;;;;;9.80;8.80;;;7.80;99.90;;;;;;4918970;29;20240;-66
2023/04/15 05:00:09;;;;;;;11.10;9.37;;;7.80;99.90;;;;;;4918992;29;20257;-65
2023/04/15 05:02:37;;;;;;;10.87;8.90;;;7.80;99.90;;;;;;4925878;29;20603;-65
2023/04/15 05:05:09;;;;;;;11.17;9.37;;;7.80;99.90;;;;;;4933736;29;20245;-66
2023/04/15 05:07:39;;;;;;;9.40;8.40;;;7.80;99.90;;;;;;4918840;29;20237;-66
2023/04/15 05:10:08;;;;;;;9.73;8.73;;;7.90;99.90;;;;;;4934925;29;20588;-65
2023/04/15 05:12:37;;;;;;;9.93;8.93;;;7.90;99.90;;;;;;4937445;29;20224;-66
2023/04/15 05:15:09;;;;;;;9.47;8.33;;;7.90;99.90;;;;;;4937535;29;20240;-66
2023/04/15 05:17:37;;;;;;;9.57;8.20;;;7.90;99.90;;;;;;4930506;29;20239;-66
2023/04/15 05:20:06;;;;;;;9.43;8.07;;;7.90;99.90;;;;;;4929874;29;20228;-66
2023/04/15 05:22:35;;;;;;;10.30;8.10;;;7.90;99.90;;;;;;4937482;29;20244;-65
2023/04/15 05:25:05;;;;;;;9.00;7.90;;;7.90;99.90;;;;;;4926542;29;20705;-66
2023/04/15 05:27:33;;;;;;;9.50;8.30;;;7.90;99.90;;;;;;4929551;29;20232;-66
2023/04/15 05:30:01;;;;;;;8.27;7.47;;;7.90;99.90;;;;;;4937325;29;20241;-66
2023/04/15 05:32:30;;;;;;;9.20;8.00;;;7.90;99.90;;;;;;4936736;29;20245;-66
2023/04/15 05:34:58;;;;;;;8.67;7.77;;;8.00;99.90;;;;;;4936515;29;20328;-66
2023/04/15 05:37:26;;;;;;;9.47;8.13;;;7.90;99.90;;;;;;4937143;29;20240;-65
2023/04/15 05:39:54;;;;;;;9.27;7.90;;;7.90;99.90;;;;;;4937355;29;20676;-65
2023/04/15 05:42:23;;;;;;;9.20;7.97;;;8.00;99.90;;;;;;4936763;29;20236;-66
2023/04/15 05:44:51;;;;;;;8.87;7.97;;;8.00;99.90;;;;;;4937388;29;20233;-66
2023/04/15 05:47:20;;;;;;;9.00;7.43;;;8.00;99.90;;;;;;4930416;29;20233;-66
2023/04/15 05:49:48;;;;;;;9.27;8.33;;;8.00;99.90;;;;;;4928958;29;20318;-65
2023/04/15 05:52:16;;;;;;;9.73;8.73;;;8.00;99.90;;;;;;4936691;29;20228;-66
2023/04/15 05:54:44;;;;;;;9.40;8.10;;;8.00;99.90;;;;;;4936497;29;20253;-66
2023/04/15 05:57:12;;;;;;;9.17;8.17;;;8.00;99.90;;;;;;4936512;29;20232;-66
2023/04/15 05:59:42;;;;;;;9.80;8.33;;;8.00;99.90;;;;;;4928489;29;20593;-64
2023/04/15 06:02:10;;;;;;;9.63;8.50;;;8.00;99.90;;;;;;4933679;29;20625;-66
2023/04/15 06:04:39;;;;;;;11.27;9.87;;;8.00;99.90;;;;;;4934928;29;20705;-66
2023/04/15 06:07:07;;;;;;;10.23;9.20;;;8.00;99.90;;;;;;4936397;29;20299;-66
2023/04/15 06:09:35;;;;;;;10.57;9.20;;;8.00;99.90;;;;;;4936126;29;20586;-66
2023/04/15 06:12:05;;;;;;;12.70;9.80;;;8.00;99.90;;;;;;4935480;29;20235;-66
2023/04/15 06:14:33;;;;;;;12.13;9.83;;;8.00;99.90;;;;;;4936028;29;20658;-66
2023/04/15 06:17:02;;;;;;;12.67;9.63;;;8.00;99.90;;;;;;4936509;29;20228;-66
2023/04/15 06:19:31;;;;;;;11.77;10.10;;;8.10;99.90;;;;;;4935629;29;20230;-66
2023/04/15 06:21:59;;;;;;;11.63;9.63;;;8.10;99.90;;;;;;4935829;29;20217;-66
2023/04/15 06:24:27;;;;;;;11.00;9.50;;;8.10;99.90;;;;;;4934302;29;20693;-66
2023/04/15 06:26:56;;;;;;;12.33;10.60;;;8.10;99.90;;;;;;4931450;29;20688;-66
2023/04/15 06:29:24;;;;;;;13.43;10.70;;;8.10;99.90;;;;;;4935524;29;20228;-66
2023/04/15 06:31:52;;;;;;;13.87;10.70;;;8.10;99.90;;;;;;4934949;29;20704;-65
2023/04/15 06:34:22;;;;;;;13.77;10.93;;;8.10;99.90;;;;;;4935778;29;20281;-66
2023/04/15 06:36:50;;;;;;;14.17;12.10;;;8.20;99.90;;;;;;4935850;29;20248;-66
2023/04/15 06:39:18;;;;;;;16.27;11.90;;;8.20;99.90;;;;;;4936227;29;20707;-66
2023/04/15 06:41:46;;;;;;;14.17;11.90;;;8.20;99.90;;;;;;4935908;29;20731;-66
2023/04/15 06:44:15;;;;;;;17.33;13.73;;;8.20;99.90;;;;;;4936180;29;20232;-66
2023/04/15 06:46:43;;;;;;;16.53;12.70;;;8.20;99.90;;;;;;4941353;29;20727;-66
2023/04/15 06:49:11;;;;;;;18.03;13.97;;;8.20;99.90;;;;;;4935333;29;20238;-65
2023/04/15 06:51:42;;;;;;;17.40;13.80;;;8.20;99.90;;;;;;4935825;29;20240;-64
2023/04/15 06:54:10;;;;;;;18.67;13.80;;;8.20;99.90;;;;;;4935720;29;20233;-66
2023/04/15 06:56:38;;;;;;;18.73;14.17;;;8.30;99.90;;;;;;4935127;29;20689;-65
2023/04/15 06:59:07;;;;;;;20.70;15.53;;;8.30;99.90;;;;;;4934715;29;20259;-66
2023/04/15 07:01:35;;;;;;;20.93;15.50;;;8.30;99.90;;;;;;4931210;29;20232;-66
2023/04/15 07:04:04;;;;;;;20.03;15.37;;;8.30;99.90;;;;;;4935080;29;20709;-66
2023/04/15 07:06:32;;;;;;;22.20;16.50;;;8.30;99.90;;;;;;4934946;29;20244;-64
2023/04/15 07:09:04;;;;;;;21.70;16.73;;;8.30;99.90;;;;;;4935473;29;20228;-66
2023/04/15 07:11:32;;;;;;;24.23;17.37;;;8.30;99.90;;;;;;4935151;29;20241;-66
2023/04/15 07:14:00;;;;;;;22.47;16.43;;;8.30;99.90;;;;;;4935526;29;20694;-66
2023/04/15 07:16:29;;;;;;;21.90;16.77;;;8.30;99.90;;;;;;4940705;29;20230;-66
2023/04/15 07:18:57;;;;;;;24.90;18.40;;;8.30;99.90;;;;;;4928219;29;20697;-66
2023/04/15 07:21:26;;;;;;;23.17;17.37;;;8.40;99.90;;;;;;4935331;29;20235;-65
2023/04/15 07:23:54;;;;;;;25.37;18.23;;;8.40;99.90;;;;;;4934727;29;20227;-66
2023/04/15 07:26:24;;;;;;;25.07;18.40;;;8.40;99.90;;;;;;4935250;29;20279;-66
2023/04/15 07:28:52;;;;;;;25.57;18.60;;;8.40;99.90;;;;;;4933224;29;20228;-66
2023/04/15 07:31:20;;;;;;;23.33;18.57;;;8.40;99.90;;;;;;4916064;29;20257;-66
2023/04/15 07:33:49;;;;;;;24.97;18.93;;;8.40;99.90;;;;;;4932463;29;20314;-66
2023/04/15 07:36:17;;;;;;;26.97;19.90;;;8.40;99.90;;;;;;4935716;29;20810;-66
2023/04/15 07:38:45;;;;;;;24.60;18.77;;;8.40;99.90;;;;;;4935325;29;20235;-65
2023/04/15 07:41:14;;;;;;;27.37;19.80;;;8.50;99.90;;;;;;4935500;29;20559;-66
2023/04/15 07:43:44;;;;;;;23.53;19.13;;;8.50;99.90;;;;;;4935359;29;20237;-66
2023/04/15 07:46:12;;;;;;;26.13;19.40;;;8.50;99.90;;;;;;4934962;29;20228;-66
2023/04/15 07:48:40;;;;;;;25.57;19.63;;;8.50;99.90;;;;;;4934691;29;20688;-66
2023/04/15 07:51:09;;;;;;;28.80;20.17;;;8.50;99.90;;;;;;4932630;29;20707;-66
2023/04/15 07:53:37;;;;;;;27.57;19.70;;;8.50;99.90;;;;;;4934569;29;20246;-65
2023/04/15 07:56:06;;;;;;;27.53;19.27;;;8.50;99.90;;;;;;4934975;29;20708;-65
2023/04/15 07:58:34;;;;;;;26.50;20.33;;;8.50;99.90;;;;;;4923354;29;20228;-63
2023/04/15 08:01:05;;;;;;;28.40;20.50;;;8.60;99.90;;;;;;4916680;29;20312;-62
2023/04/15 08:03:34;;;;;;;27.00;19.57;;;8.60;99.90;;;;;;4916965;29;20230;-65
2023/04/15 08:06:02;;;;;;;29.10;20.57;;;8.60;99.90;;;;;;4917523;29;20750;-61
2023/04/15 08:08:31;;;;;;;29.60;21.00;;;8.60;99.90;;;;;;4916125;29;20250;-64
2023/04/15 08:10:59;;;;;;;29.40;20.53;;;8.60;99.90;;;;;;4917671;29;20575;-64
2023/04/15 08:13:28;;;;;;;28.83;21.27;;;8.70;99.90;;;;;;4917747;29;20264;-65
2023/04/15 08:16:17;;;;;;;31.37;20.63;;;8.70;99.90;;;;;;4917924;29;20244;-60
2023/04/15 08:18:45;;;;;;;28.20;20.07;;;8.70;99.90;;;;;;4915740;29;20234;-65
2023/04/15 08:21:13;;;;;;;28.20;20.23;;;8.70;99.90;;;;;;4917121;29;20229;-65
2023/04/15 08:23:42;;;;;;;31.47;20.83;;;8.70;99.90;;;;;;4916971;29;20596;-65
2023/04/15 08:26:10;;;;;;;29.97;20.43;;;8.70;99.90;;;;;;4916822;29;20580;-60
2023/04/15 08:28:40;;;;;;;30.13;20.83;;;8.80;99.90;;;;;;4914803;29;20243;-65
2023/04/15 08:31:09;;;;;;;33.33;21.53;;;8.80;99.90;;;;;;4916129;29;20244;-63
2023/04/15 08:33:40;;;;;;;28.27;19.57;;;8.80;99.90;;;;;;4918228;29;20309;-62
2023/04/15 08:36:08;;;;;;;31.47;21.43;;;8.80;99.90;;;;;;4920381;29;20237;-64
2023/04/15 08:38:37;;;;;;;29.07;20.47;;;8.80;99.90;;;;;;4920769;29;20239;-65
2023/04/15 08:41:11;;;;;;;32.30;21.37;;;8.80;99.90;;;;;;4923476;29;20762;-64
2023/04/15 08:43:49;;;;;;;34.77;22.47;;;8.80;99.90;;;;;;4922337;29;20233;-62
2023/04/15 08:46:18;;;;;;;32.87;22.57;;;8.80;99.90;;;;;;4928298;29;20575;-66
2023/04/15 08:48:48;;;;;;;37.90;24.77;;;8.90;99.90;;;;;;4929702;29;20273;-66
2023/04/15 08:51:17;;;;;;;38.50;24.93;;;8.90;99.90;;;;;;4938144;29;20244;-65
2023/04/15 08:53:46;;;;;;;38.77;25.20;;;8.80;99.90;;;;;;4920147;29;20270;-65
2023/04/15 08:56:16;;;;;;;37.47;25.67;;;8.80;99.90;;;;;;4930534;29;20330;-66
2023/04/15 08:58:46;;;;;;;34.47;24.40;;;8.90;99.90;;;;;;4921421;29;20229;-66
2023/04/15 09:01:16;;;;;;;39.90;26.67;;;8.90;99.90;;;;;;4936289;29;20648;-66
2023/04/15 09:03:45;;;;;;;41.93;27.90;;;8.90;99.90;;;;;;4928705;29;20300;-66
2023/04/15 09:06:16;;;;;;;45.13;29.90;;;9.00;99.90;;;;;;4933497;29;20228;-65
2023/04/15 09:08:45;;;;;;;44.60;30.57;;;9.00;99.90;;;;;;4937937;29;20688;-65
2023/04/15 09:11:13;;;;;;;48.00;30.23;;;9.00;99.90;;;;;;4939710;29;20240;-66
2023/04/15 09:13:41;;;;;;;48.27;31.03;;;9.00;99.90;;;;;;4956527;29;20230;-66
2023/04/15 09:16:09;;;;;;;46.23;30.67;;;9.00;99.90;;;;;;4950812;28;20249;-65
2023/04/15 09:18:39;;;;;;;44.00;30.23;;;9.00;99.90;;;;;;4926235;29;20238;-65
2023/04/15 09:21:10;;;;;;;51.53;31.63;;;9.00;99.90;;;;;;4937398;29;20240;-66
2023/04/15 09:23:41;;;;;;;45.77;31.20;;;9.10;99.90;;;;;;4937330;29;20271;-66
2023/04/15 09:26:09;;;;;;;50.10;31.80;;;9.10;99.90;;;;;;4936693;29;20232;-64
2023/04/15 09:28:42;;;;;;;44.97;31.60;;;9.10;99.90;;;;;;4936821;29;20283;-65
2023/04/15 09:31:10;;;;;;;49.47;33.20;;;9.10;99.90;;;;;;4936103;29;20316;-66
2023/04/15 09:33:56;;;;;;;45.10;31.37;;;9.20;99.90;;;;;;4942931;29;20239;-65
2023/04/15 09:36:25;;;;;;;50.13;32.30;;;9.20;99.90;;;;;;4931955;29;20232;-65
2023/04/15 09:38:58;;;;;;;50.10;33.70;;;9.20;99.90;;;;;;4935613;29;20237;-64
2023/04/15 09:41:27;;;;;;;47.83;33.70;;;9.20;99.90;;;;;;4936413;29;20228;-66
2023/04/15 09:43:55;;;;;;;50.77;34.27;;;9.20;99.90;;;;;;4936562;29;20601;-66
2023/04/15 09:46:41;;;;;;;50.63;35.17;;;9.20;99.90;;;;;;4936754;29;20235;-66
2023/04/15 09:49:10;;;;;;;52.77;34.03;;;9.20;99.90;;;;;;4925668;29;20763;-66
2023/04/15 09:51:38;;;;;;;56.20;35.97;;;9.20;99.90;;;;;;4921961;29;20233;-65
2023/04/15 09:54:08;;;;;;;54.07;34.93;;;9.30;99.90;;;;;;4936270;29;20262;-66
2023/04/15 09:56:41;;;;;;;53.27;35.67;;;9.30;99.90;;;;;;4940377;29;20271;-67
2023/04/15 09:59:10;;;;;;;52.87;37.07;;;9.30;99.90;;;;;;4925705;29;20226;-66
2023/04/15 10:01:41;;;;;;;51.37;35.67;;;9.30;99.90;;;;;;4917369;29;20622;-66
2023/04/15 10:04:09;;;;;;;53.33;36.67;;;9.30;99.90;;;;;;4932362;29;20261;-67
2023/04/15 10:06:39;;;;;;;56.53;37.70;;;9.40;99.90;;;;;;4933408;29;20233;-66
2023/04/15 10:09:09;;;;;;;56.20;37.57;;;9.40;99.90;;;;;;4936744;29;20259;-66
2023/04/15 10:11:37;;;;;;;54.33;36.07;;;9.40;99.90;;;;;;4928265;29;20590;-66
2023/04/15 10:14:07;;;;;;;57.50;38.03;;;9.50;99.90;;;;;;4917203;29;20273;-67
2023/04/15 10:16:41;;;;;;;54.60;36.60;;;9.60;99.90;;;;;;4923821;29;20265;-66
2023/04/15 10:19:10;;;;;;;58.00;38.37;;;9.60;99.90;;;;;;4925048;29;20308;-63
2023/04/15 10:21:39;;;;;;;55.07;38.23;;;9.70;99.90;;;;;;4917151;29;20239;-66
2023/04/15 10:24:09;;;;;;;56.07;38.47;;;9.70;99.90;;;;;;4918348;29;20233;-66
2023/04/15 10:26:37;;;;;;;57.20;38.87;;;9.70;99.90;;;;;;4935080;29;20565;-66
2023/04/15 10:29:06;;;;;;;52.70;36.37;;;9.80;99.90;;;;;;4936366;29;20232;-66
2023/04/15 10:31:36;;;;;;;56.50;36.93;;;9.90;99.90;;;;;;4935531;29;20246;-66
2023/04/15 10:34:06;;;;;;;51.00;35.87;;;10.00;99.90;;;;;;4936247;29;20237;-66
2023/04/15 10:36:34;;;;;;;50.40;35.47;;;10.20;99.90;;;;;;4920886;29;20243;-65
2023/04/15 10:39:02;;;;;;;50.60;35.93;;;10.20;99.90;;;;;;4917139;29;20231;-66
2023/04/15 10:41:33;;;;;;;47.23;33.63;;;10.10;99.90;;;;;;4917036;29;20226;-66
2023/04/15 10:44:03;;;;;;;47.23;34.90;;;10.20;99.90;;;;;;4916968;29;20321;-66
2023/04/15 10:46:37;;;;;;;46.53;33.43;;;10.20;99.90;;;;;;4922865;29;20242;-66
2023/04/15 10:49:10;;;;;;;48.17;32.80;;;10.30;99.90;;;;;;4925623;29;20267;-66
2023/04/15 10:51:41;;;;;;;43.03;33.23;;;10.40;99.90;;;;;;4935848;29;20718;-66
2023/04/15 10:54:13;;;;;;;44.40;33.10;;;10.40;99.90;;;;;;4936108;29;20589;-65
2023/04/15 10:56:44;;;;;;;44.73;33.30;;;10.50;99.90;;;;;;4935714;29;20307;-66
2023/04/15 10:59:12;;;;;;;39.77;31.30;;;10.50;99.90;;;;;;4935954;29;20241;-66
2023/04/15 11:02:01;;;;;;;42.50;32.47;;;10.50;99.90;;;;;;4935247;29;20236;-66
2023/04/15 11:04:54;;;;;;;40.73;30.80;;;10.60;99.90;;;;;;4924046;29;20349;-66
2023/04/15 11:07:51;;;;;;;38.73;30.70;;;10.80;99.90;;;;;;4916899;29;20255;-65
2023/04/15 11:10:56;;;;;;;41.87;30.73;;;10.80;99.90;;;;;;4908251;29;20235;-66
2023/04/15 11:13:27;;;;;;;37.93;29.80;;;10.80;99.90;;;;;;4916738;29;20236;-66
2023/04/15 11:16:00;;;;;;;39.90;29.87;;;10.90;99.90;;;;;;4917901;29;20564;-66
2023/04/15 11:18:31;;;;;;;42.80;31.00;;;10.80;99.90;;;;;;4927720;29;20238;-65
2023/04/15 11:21:02;;;;;;;38.83;30.30;;;10.80;99.90;;;;;;4935788;29;20241;-66
2023/04/15 11:23:36;;;;;;;39.60;30.50;;;10.80;99.90;;;;;;4935270;29;20276;-65
2023/04/15 11:26:08;;;;;;;38.57;30.47;;;10.80;99.90;;;;;;4935403;29;20317;-66
2023/04/15 11:28:41;;;;;;;38.47;29.63;;;10.90;99.90;;;;;;4935375;29;20746;-65
2023/04/15 11:31:11;;;;;;;37.37;29.40;;;11.00;99.90;;;;;;4935056;29;20243;-64
2023/04/15 11:33:46;;;;;;;41.30;30.80;;;11.00;99.90;;;;;;4934971;29;20266;-65
2023/04/15 11:36:14;;;;;;;37.43;29.87;;;11.10;99.90;;;;;;4928936;29;20248;-66
2023/04/15 11:38:44;;;;;;;39.57;30.17;;;11.40;99.90;;;;;;4935346;29;20752;-64
2023/04/15 11:41:12;;;;;;;36.53;29.63;;;11.60;99.90;;;;;;4935384;29;20233;-65
2023/04/15 11:43:42;;;;;;;38.83;28.67;;;11.80;99.90;;;;;;4935201;29;20246;-66
2023/04/15 11:46:10;;;;;;;36.67;28.90;;;11.90;99.90;;;;;;4938223;29;20248;-65
2023/04/15 11:48:42;;;;;;;35.23;27.97;;;12.10;99.90;;;;;;4930232;29;20235;-65
2023/04/15 11:51:12;;;;;;;36.50;28.13;;;12.10;99.90;;;;;;4934863;29;20231;-65
2023/04/15 11:53:42;;;;;;;33.10;27.77;;;12.40;99.90;;;;;;4935279;29;20733;-65
2023/04/15 11:56:11;;;;;;;33.33;26.80;;;12.70;99.90;;;;;;4935121;29;20263;-65
2023/04/15 11:58:42;;;;;;;35.37;26.80;;;12.80;99.90;;;;;;4935262;29;20227;-65
2023/04/15 12:01:10;;;;;;;33.27;26.33;;;12.90;99.90;;;;;;4934871;29;20315;-65
2023/04/15 12:03:39;;;;;;;33.17;27.30;;;12.90;99.90;;;;;;4934765;29;20322;-65
2023/04/15 12:06:15;;;;;;;31.07;26.77;;;13.10;99.90;;;;;;4928030;29;20686;-65
2023/04/15 12:09:08;;;;;;;31.97;26.40;;;13.10;99.90;;;;;;4922748;29;20714;-65
2023/04/15 12:11:44;;;;;;;30.37;25.07;;;13.30;99.90;;;;;;4918659;29;20244;-65
2023/04/15 12:14:21;;;;;;;29.10;25.03;;;13.30;99.90;;;;;;4919615;29;20230;-65
2023/04/15 12:16:50;;;;;;;29.00;24.63;;;13.40;99.90;;;;;;4926012;29;20403;-66
2023/04/15 12:19:24;;;;;;;28.57;24.27;;;13.30;99.90;;;;;;4927321;29;20276;-64
2023/04/15 12:21:54;;;;;;;28.27;25.10;;;13.40;99.90;;;;;;4928006;29;20238;-65
2023/04/15 12:24:22;;;;;;;29.37;23.93;;;13.40;99.90;;;;;;4938842;29;20251;-65
2023/04/15 12:26:52;;;;;;;29.23;24.17;;;13.40;99.90;;;;;;4938688;29;20270;-64
2023/04/15 12:29:26;;;;;;;29.13;24.27;;;13.60;99.90;;;;;;4938702;29;20238;-65
2023/04/15 12:31:56;;;;;;;30.00;23.93;;;13.70;99.90;;;;;;4938083;29;20252;-65
2023/04/15 12:34:29;;;;;;;26.27;23.43;;;13.70;99.90;;;;;;4933316;29;20233;-65
2023/04/15 12:36:59;;;;;;;29.83;24.70;;;13.90;99.90;;;;;;4937826;29;20242;-65
2023/04/15 12:39:29;;;;;;;26.73;21.70;;;14.20;99.90;;;;;;4938032;29;20245;-65
2023/04/15 12:41:58;;;;;;;25.67;21.27;;;14.30;99.90;;;;;;4938500;29;20325;-65
2023/04/15 12:44:29;;;;;;;25.70;21.93;;;14.30;99.90;;;;;;4938208;29;20234;-65
2023/04/15 12:46:58;;;;;;;23.07;20.67;;;14.30;99.90;;;;;;4931749;29;20283;-65
2023/04/15 12:49:27;;;;;;;24.77;21.10;;;14.40;99.90;;;;;;4929698;29;20321;-65
2023/04/15 12:51:58;;;;;;;23.60;20.83;;;14.50;99.90;;;;;;4938035;29;20228;-65
2023/04/15 12:54:26;;;;;;;22.80;19.57;;;14.30;99.90;;;;;;4938024;29;20243;-62